createdAt,value
2023-02-11T00:00:42.864Z,17.43
2023-02-11T00:03:10.434Z,17.47
2023-02-11T00:05:37.614Z,17.48
2023-02-11T00:08:04.901Z,17.49
2023-02-11T00:10:32.029Z,17.48
2023-02-11T00:12:59.141Z,17.47
2023-02-11T00:15:26.250Z,17.48
2023-02-11T00:17:53.411Z,17.51
2023-02-11T00:20:20.467Z,17.53
2023-02-11T00:22:47.535Z,17.55
2023-02-11T00:25:14.571Z,17.56
2023-02-11T00:27:42.011Z,17.60
2023-02-11T00:30:10.689Z,17.61
2023-02-11T00:32:37.919Z,17.65
2023-02-11T00:35:05.323Z,17.70
2023-02-11T00:37:32.422Z,17.72
2023-02-11T00:39:59.401Z,17.73
2023-02-11T00:42:26.467Z,17.74
2023-02-11T00:44:53.529Z,17.71
2023-02-11T00:47:20.707Z,17.68
2023-02-11T00:49:47.753Z,17.67
2023-02-11T00:52:14.777Z,17.70
2023-02-11T00:54:42.368Z,17.76
2023-02-11T00:57:11.732Z,17.80
2023-02-11T00:59:38.722Z,17.80
2023-02-11T01:02:05.802Z,17.71
2023-02-11T01:04:32.919Z,17.67
2023-02-11T01:06:59.950Z,17.64
2023-02-11T01:09:27.368Z,17.63
2023-02-11T01:11:54.388Z,17.63
2023-02-11T01:14:21.470Z,17.57
2023-02-11T01:16:48.649Z,17.58
2023-02-11T01:19:15.717Z,17.59
2023-02-11T01:21:44.436Z,17.60
2023-02-11T01:24:15.912Z,17.62
2023-02-11T01:26:43.009Z,17.66
2023-02-11T01:29:10.027Z,17.68
2023-02-11T01:31:37.460Z,17.68
2023-02-11T01:34:05.263Z,17.66
2023-02-11T01:36:32.491Z,17.62
2023-02-11T01:38:59.602Z,17.61
2023-02-11T01:41:26.763Z,17.63
2023-02-11T01:43:53.748Z,17.66
2023-02-11T01:46:25.453Z,17.66
2023-02-11T01:49:15.273Z,17.62
2023-02-11T01:51:47.508Z,17.64
2023-02-11T01:54:37.672Z,17.70
2023-02-11T01:57:25.149Z,17.75
2023-02-11T02:00:01.962Z,17.75
2023-02-11T02:02:51.234Z,17.73
2023-02-11T02:05:26.525Z,17.69
2023-02-11T02:08:38.675Z,17.67
2023-02-11T02:11:06.745Z,17.63
2023-02-11T02:13:35.113Z,17.59
2023-02-11T02:16:07.207Z,17.56
2023-02-11T02:18:54.539Z,17.50
2023-02-11T02:22:10.803Z,17.46
2023-02-11T02:25:05.589Z,17.42
2023-02-11T02:28:01.909Z,17.41
2023-02-11T02:30:44.028Z,17.37
2023-02-11T02:33:23.231Z,17.31
2023-02-11T02:36:13.771Z,17.30
2023-02-11T02:38:52.812Z,17.31
2023-02-11T02:41:23.587Z,17.30
2023-02-11T02:43:52.114Z,17.30
2023-02-11T02:46:48.451Z,17.36
2023-02-11T02:49:17.401Z,17.40
2023-02-11T02:52:17.145Z,17.39
2023-02-11T02:55:06.132Z,17.40
2023-02-11T02:58:14.862Z,17.41
2023-02-11T03:00:48.854Z,17.47
2023-02-11T03:03:26.483Z,17.46
2023-02-11T03:06:15.819Z,17.40
2023-02-11T03:08:47.934Z,17.37
2023-02-11T03:11:17.749Z,17.37
2023-02-11T03:13:47.199Z,17.39
2023-02-11T03:16:19.478Z,17.41
2023-02-11T03:19:10.952Z,17.42
2023-02-11T03:21:41.707Z,17.44
2023-02-11T03:24:17.697Z,17.44
2023-02-11T03:26:51.877Z,17.44
2023-02-11T03:29:23.756Z,17.49
2023-02-11T03:31:50.794Z,17.55
2023-02-11T03:34:44.266Z,17.53
2023-02-11T03:37:22.589Z,17.52
2023-02-11T03:39:56.866Z,17.50
2023-02-11T03:42:30.757Z,17.46
2023-02-11T03:45:00.363Z,17.44
2023-02-11T03:47:30.816Z,17.43
2023-02-11T03:49:59.870Z,17.40
2023-02-11T03:52:28.094Z,17.42
2023-02-11T03:55:00.684Z,17.41
2023-02-11T03:57:27.835Z,17.34
2023-02-11T03:59:57.392Z,17.29
2023-02-11T04:02:28.740Z,17.26
2023-02-11T04:04:56.131Z,17.16
2023-02-11T04:07:23.817Z,17.05
2023-02-11T04:09:50.867Z,16.99
2023-02-11T04:12:18.197Z,16.96
2023-02-11T04:14:45.242Z,16.93
2023-02-11T04:17:13.325Z,16.97
2023-02-11T04:19:40.375Z,16.98
2023-02-11T04:22:07.965Z,16.97
2023-02-11T04:24:35.590Z,16.98
2023-02-11T04:27:02.600Z,17.03
2023-02-11T04:29:29.799Z,17.11
2023-02-11T04:31:56.923Z,17.10
2023-02-11T04:34:24.772Z,17.13
2023-02-11T04:36:52.018Z,17.17
2023-02-11T04:39:19.653Z,17.20
2023-02-11T04:41:46.723Z,17.18
2023-02-11T04:44:13.742Z,17.12
2023-02-11T04:46:40.780Z,17.09
2023-02-11T04:49:07.916Z,17.06
2023-02-11T04:51:34.876Z,17.09
2023-02-11T04:54:01.895Z,17.06
2023-02-11T04:56:28.989Z,17.05
2023-02-11T04:58:56.029Z,17.01
2023-02-11T05:01:23.124Z,17.03
2023-02-11T05:03:51.411Z,17.05
2023-02-11T05:06:18.871Z,17.00
2023-02-11T05:08:45.918Z,16.95
2023-02-11T05:11:20.128Z,17.00
2023-02-11T05:13:47.790Z,17.02
2023-02-11T05:16:16.400Z,16.99
2023-02-11T05:18:45.291Z,17.00
2023-02-11T05:21:19.056Z,17.00
2023-02-11T05:23:46.503Z,17.05
2023-02-11T05:26:14.149Z,17.09
2023-02-11T05:28:41.694Z,17.08
2023-02-11T05:31:08.967Z,17.10
2023-02-11T05:33:36.267Z,17.12
2023-02-11T05:36:07.169Z,17.16
2023-02-11T05:38:34.991Z,17.17
2023-02-11T05:41:02.151Z,17.20
2023-02-11T05:43:29.178Z,17.21
2023-02-11T05:45:56.373Z,17.22
2023-02-11T05:48:23.589Z,17.19
2023-02-11T05:50:50.637Z,17.19
2023-02-11T05:53:17.767Z,17.18
2023-02-11T05:55:44.974Z,17.19
2023-02-11T05:58:12.108Z,17.26
2023-02-11T06:00:39.151Z,17.25
2023-02-11T06:03:06.266Z,17.20
2023-02-11T06:05:33.285Z,17.18
2023-02-11T06:08:00.415Z,17.14
2023-02-11T06:10:27.603Z,17.08
2023-02-11T06:12:54.657Z,17.06
2023-02-11T06:15:21.676Z,17.07
2023-02-11T06:17:48.767Z,17.04
2023-02-11T06:20:15.837Z,17.02
2023-02-11T06:22:42.937Z,17.02
2023-02-11T06:25:11.358Z,17.02
2023-02-11T06:27:39.207Z,17.04
2023-02-11T06:30:07.690Z,17.02
2023-02-11T06:32:44.058Z,16.98
2023-02-11T06:35:13.099Z,16.99
2023-02-11T06:37:41.289Z,17.00
2023-02-11T06:40:08.990Z,16.98
2023-02-11T06:42:36.419Z,17.01
2023-02-11T06:45:06.710Z,17.03
2023-02-11T06:47:34.017Z,17.05
2023-02-11T06:50:01.150Z,17.05
2023-02-11T06:52:28.577Z,17.10
2023-02-11T06:54:55.570Z,17.10
2023-02-11T06:57:22.598Z,17.04
2023-02-11T06:59:49.832Z,16.92
2023-02-11T07:02:19.080Z,16.78
2023-02-11T07:04:47.919Z,16.70
2023-02-11T07:07:15.009Z,16.66
2023-02-11T07:09:42.249Z,16.63
2023-02-11T07:12:12.209Z,16.67
2023-02-11T07:14:39.611Z,16.76
2023-02-11T07:17:06.815Z,16.87
2023-02-11T07:19:33.878Z,16.84
2023-02-11T07:22:00.936Z,16.82
2023-02-11T07:24:28.005Z,16.82
2023-02-11T07:26:55.072Z,16.86
2023-02-11T07:29:22.227Z,16.91
2023-02-11T07:31:49.534Z,16.94
2023-02-11T07:34:16.535Z,16.97
2023-02-11T07:36:45.321Z,16.98
2023-02-11T07:39:12.808Z,16.98
2023-02-11T07:41:39.924Z,17.01
2023-02-11T07:44:07.559Z,17.01
2023-02-11T07:46:36.063Z,17.04
2023-02-11T07:49:03.930Z,17.10
2023-02-11T07:51:31.698Z,17.20
2023-02-11T07:54:00.291Z,17.29
2023-02-11T07:56:28.360Z,17.32
2023-02-11T07:58:57.170Z,17.31
2023-02-11T08:01:28.706Z,17.33
2023-02-11T08:03:57.548Z,17.34
2023-02-11T08:06:27.616Z,17.41
2023-02-11T08:08:55.131Z,17.48
2023-02-11T08:11:23.559Z,17.51
2023-02-11T08:13:51.103Z,17.51
2023-02-11T08:16:39.351Z,17.50
2023-02-11T08:19:10.708Z,17.54
2023-02-11T08:21:38.316Z,17.58
2023-02-11T08:24:06.192Z,17.64
2023-02-11T08:26:35.263Z,17.70
2023-02-11T08:29:06.144Z,17.73
2023-02-11T08:31:39.281Z,17.74
2023-02-11T08:34:07.230Z,17.75
2023-02-11T08:36:36.451Z,17.83
2023-02-11T08:39:22.203Z,17.91
2023-02-11T08:41:51.482Z,17.98
2023-02-11T08:44:22.145Z,17.99
2023-02-11T08:46:50.512Z,17.92
2023-02-11T08:49:18.191Z,17.88
2023-02-11T08:51:46.095Z,17.85
2023-02-11T08:54:13.619Z,17.89
2023-02-11T08:56:41.431Z,17.93
2023-02-11T08:59:12.374Z,17.96
2023-02-11T09:01:39.546Z,18.01
2023-02-11T09:04:06.708Z,18.04
2023-02-11T09:06:34.498Z,18.08
2023-02-11T09:09:01.692Z,18.12
2023-02-11T09:11:35.385Z,18.18
2023-02-11T09:14:03.741Z,18.22
2023-02-11T09:16:33.687Z,18.27
2023-02-11T09:19:02.382Z,18.32
2023-02-11T09:21:29.917Z,18.38
2023-02-11T09:23:57.556Z,18.41
2023-02-11T09:26:27.255Z,18.44
2023-02-11T09:28:54.936Z,18.51
2023-02-11T09:31:24.708Z,18.57
2023-02-11T09:33:54.803Z,18.62
2023-02-11T09:36:25.286Z,18.65
2023-02-11T09:38:53.332Z,18.62
2023-02-11T09:42:06.323Z,18.65
2023-02-11T09:44:35.748Z,18.68
2023-02-11T09:47:30.798Z,18.71
2023-02-11T09:50:07.056Z,18.73
2023-02-11T09:52:47.690Z,18.74
2023-02-11T09:55:29.668Z,18.84
2023-02-11T09:57:58.183Z,18.90
2023-02-11T10:00:30.145Z,18.98
2023-02-11T10:03:15.080Z,19.06
2023-02-11T10:06:10.155Z,19.09
2023-02-11T10:09:02.878Z,19.07
2023-02-11T10:11:41.929Z,19.09
2023-02-11T10:14:44.129Z,19.10
2023-02-11T10:17:35.685Z,19.10
2023-02-11T10:20:16.789Z,19.04
2023-02-11T10:22:58.977Z,18.96
2023-02-11T10:25:45.518Z,18.89
2023-02-11T10:28:22.431Z,18.89
2023-02-11T10:30:58.612Z,18.87
2023-02-11T10:33:25.747Z,18.84
2023-02-11T10:35:52.880Z,18.83
2023-02-11T10:38:20.254Z,18.84
2023-02-11T10:40:47.436Z,18.88
2023-02-11T10:43:16.796Z,18.94
2023-02-11T10:45:54.402Z,18.99
2023-02-11T10:48:36.805Z,18.99
2023-02-11T10:51:20.823Z,18.98
2023-02-11T10:54:12.599Z,18.97
2023-02-11T10:56:46.839Z,18.99
2023-02-11T10:59:40.573Z,18.96
2023-02-11T11:02:23.843Z,18.95
2023-02-11T11:04:57.814Z,18.92
2023-02-11T11:07:28.679Z,18.92
2023-02-11T11:09:59.429Z,18.99
2023-02-11T11:12:32.323Z,19.05
2023-02-11T11:15:02.171Z,19.09
2023-02-11T11:17:29.907Z,19.15
2023-02-11T11:20:19.178Z,19.20
2023-02-11T11:22:47.575Z,19.12
2023-02-11T11:25:36.498Z,19.13
2023-02-11T11:28:04.336Z,19.14
2023-02-11T11:30:41.711Z,19.14
2023-02-11T11:33:41.930Z,19.16
2023-02-11T11:36:11.891Z,19.18
2023-02-11T11:38:46.165Z,19.23
2023-02-11T11:41:17.327Z,19.33
2023-02-11T11:44:01.568Z,19.44
2023-02-11T11:46:39.456Z,19.54
2023-02-11T11:49:25.948Z,19.54
2023-02-11T11:52:10.185Z,19.58
2023-02-11T11:54:37.315Z,19.58
2023-02-11T11:57:16.810Z,19.58
2023-02-11T11:59:44.124Z,19.62
2023-02-11T12:02:24.855Z,19.68
2023-02-11T12:05:24.673Z,19.70
2023-02-11T12:08:30.992Z,19.74
2023-02-11T12:11:03.612Z,19.73
2023-02-11T12:13:47.130Z,19.74
2023-02-11T12:16:28.828Z,19.79
2023-02-11T12:19:08.339Z,19.82
2023-02-11T12:22:02.559Z,19.89
2023-02-11T12:24:44.505Z,19.87
2023-02-11T12:27:20.455Z,19.88
2023-02-11T12:30:04.015Z,19.89
2023-02-11T12:32:58.790Z,19.91
2023-02-11T12:35:44.150Z,19.95
2023-02-11T12:38:26.540Z,19.98
2023-02-11T12:41:02.573Z,20.03
2023-02-11T12:43:34.944Z,20.03
2023-02-11T12:46:33.854Z,20.05
2023-02-11T12:49:25.213Z,19.97
2023-02-11T12:52:04.318Z,19.96
2023-02-11T12:54:40.437Z,19.97
2023-02-11T12:57:21.354Z,20.04
2023-02-11T13:00:04.522Z,20.13
2023-02-11T13:02:37.997Z,20.23
2023-02-11T13:05:32.203Z,20.29
2023-02-11T13:08:05.392Z,20.29
2023-02-11T13:10:36.512Z,20.29
2023-02-11T13:13:16.820Z,20.36
2023-02-11T13:16:09.203Z,20.44
2023-02-11T13:18:45.214Z,20.53
2023-02-11T13:21:15.088Z,20.60
2023-02-11T13:24:06.634Z,20.67
2023-02-11T13:26:59.527Z,20.70
2023-02-11T13:29:41.898Z,20.80
2023-02-11T13:32:12.088Z,20.76
2023-02-11T13:34:42.194Z,20.78
2023-02-11T13:37:24.213Z,20.75
2023-02-11T13:40:24.457Z,20.70
2023-02-11T13:43:03.058Z,20.68
2023-02-11T13:45:42.154Z,20.72
2023-02-11T13:48:36.455Z,20.86
2023-02-11T13:51:07.158Z,20.89
2023-02-11T13:53:51.864Z,20.85
2023-02-11T13:56:28.007Z,20.85
2023-02-11T13:58:55.092Z,20.94
2023-02-11T14:02:12.715Z,21.01
2023-02-11T14:05:23.422Z,20.99
2023-02-11T14:08:30.744Z,20.97
2023-02-11T14:11:03.889Z,20.95
2023-02-11T14:13:34.743Z,20.80
2023-02-11T14:16:22.588Z,20.82
2023-02-11T14:18:55.140Z,20.86
2023-02-11T14:21:34.684Z,20.72
2023-02-11T14:24:01.714Z,20.70
2023-02-11T14:26:52.124Z,20.70
2023-02-11T14:29:40.828Z,20.83
2023-02-11T14:32:20.180Z,20.83
2023-02-11T14:35:01.469Z,20.76
2023-02-11T14:37:50.987Z,20.79
2023-02-11T14:40:31.201Z,20.75
2023-02-11T14:43:08.058Z,20.72
2023-02-11T14:45:37.221Z,20.60
2023-02-11T14:48:12.880Z,20.67
2023-02-11T14:50:47.519Z,20.67
2023-02-11T14:53:21.658Z,20.80
2023-02-11T14:55:53.918Z,20.83
2023-02-11T14:58:30.368Z,20.73
2023-02-11T15:01:12.148Z,20.71
2023-02-11T15:03:48.293Z,20.67
2023-02-11T15:06:18.647Z,20.78
2023-02-11T15:09:08.330Z,20.77
2023-02-11T15:11:40.265Z,20.88
2023-02-11T15:14:11.114Z,20.96
2023-02-11T15:16:47.759Z,21.03
2023-02-11T15:19:42.653Z,21.02
2023-02-11T15:22:22.710Z,21.17
2023-02-11T15:25:17.289Z,21.33
2023-02-11T15:27:56.775Z,21.30
2023-02-11T15:30:25.924Z,21.27
2023-02-11T15:32:59.030Z,21.28
2023-02-11T15:35:29.270Z,21.21
2023-02-11T15:37:58.005Z,21.15
2023-02-11T15:40:29.531Z,21.15
2023-02-11T15:42:59.448Z,21.15
2023-02-11T15:46:01.073Z,21.17
2023-02-11T15:48:47.490Z,21.26
2023-02-11T15:51:25.555Z,21.27
2023-02-11T15:54:06.300Z,21.27
2023-02-11T15:56:43.716Z,21.33
2023-02-11T15:59:19.524Z,21.37
2023-02-11T16:01:48.802Z,21.42
2023-02-11T16:04:25.204Z,21.48
2023-02-11T16:06:54.891Z,21.52
2023-02-11T16:09:34.380Z,21.59
2023-02-11T16:12:27.385Z,21.64
2023-02-11T16:14:56.175Z,21.67
2023-02-11T16:17:28.102Z,21.77
2023-02-11T16:19:55.649Z,21.91
2023-02-11T16:22:29.152Z,21.84
2023-02-11T16:24:59.967Z,21.81
2023-02-11T16:27:41.503Z,21.87
2023-02-11T16:30:25.491Z,21.89
2023-02-11T16:32:54.309Z,21.89
2023-02-11T16:35:21.828Z,21.92
2023-02-11T16:37:48.882Z,21.85
2023-02-11T16:40:16.354Z,21.83
2023-02-11T16:42:43.410Z,21.89
2023-02-11T16:45:10.662Z,21.91
2023-02-11T16:47:41.289Z,21.91
2023-02-11T16:50:10.805Z,21.89
2023-02-11T16:52:38.588Z,21.87
2023-02-11T16:55:06.708Z,21.87
2023-02-11T16:57:33.839Z,21.76
2023-02-11T17:00:01.000Z,21.62
2023-02-11T17:02:30.882Z,21.40
2023-02-11T17:05:15.607Z,21.20
2023-02-11T17:07:42.658Z,21.11
2023-02-11T17:10:36.014Z,21.04
2023-02-11T17:13:04.727Z,20.94
2023-02-11T17:15:32.533Z,20.80
2023-02-11T17:17:59.955Z,20.70
2023-02-11T17:20:27.039Z,20.66
2023-02-11T17:22:54.123Z,20.51
2023-02-11T17:25:21.809Z,20.47
2023-02-11T17:27:50.692Z,20.47
2023-02-11T17:30:19.874Z,20.38
2023-02-11T17:32:47.626Z,20.35
2023-02-11T17:35:14.884Z,20.30
2023-02-11T17:37:42.006Z,20.18
2023-02-11T17:40:09.765Z,20.14
2023-02-11T17:42:36.990Z,20.12
2023-02-11T17:45:04.426Z,20.08
2023-02-11T17:47:31.473Z,20.04
2023-02-11T17:49:58.887Z,19.95
2023-02-11T17:52:28.138Z,19.94
2023-02-11T17:54:56.251Z,19.96
